Time;durP1;ratioP1;P1;durP2;ratioP2;P2;SDS_P1;SDS_P2;PMS_P1;PMS_P2;Temp;Humidity;BMP_temperature;BMP_pressure;BME280_temperature;BME280_humidity;BME280_pressure;Samples;Min_cycle;Max_cycle;Signal;HPM_P1;HPM_P2
2021/04/23 00:02:13;;;;;;;33.33;21.98;;;333.40;1766.40;;;;;;5103228;28;20359;-63
2021/04/23 00:04:38;;;;;;;26.35;21.77;;;333.40;1766.40;;;;;;5104032;28;20024;-61
2021/04/23 00:07:04;;;;;;;26.83;22.30;;;333.30;1766.40;;;;;;5104388;28;20407;-62
2021/04/23 00:09:32;;;;;;;29.13;21.52;;;333.30;1792.00;;;;;;5105470;28;20032;-63
2021/04/23 00:12:12;;;;;;;28.15;21.98;;;333.30;1792.00;;;;;;5097342;28;20027;-62
2021/04/23 00:14:41;;;;;;;28.42;20.63;;;333.30;1792.00;;;;;;5099476;28;20031;-61
2021/04/23 00:17:07;;;;;;;29.52;22.73;;;333.30;1766.40;;;;;;5111315;28;20398;-61
2021/04/23 00:19:33;;;;;;;27.63;22.70;;;333.30;1766.40;;;;;;5108523;28;20027;-62
2021/04/23 00:21:59;;;;;;;30.20;23.73;;;333.30;1766.40;;;;;;5101942;28;20028;-62
2021/04/23 00:24:26;;;;;;;28.17;23.45;;;333.40;1766.40;;;;;;5102311;28;20024;-62
2021/04/23 00:26:53;;;;;;;28.77;23.70;;;333.30;1792.00;;;;;;5103411;28;20012;-62
2021/04/23 00:29:19;;;;;;;30.85;23.10;;;333.40;1766.40;;;;;;5104922;28;20480;-62
2021/04/23 00:34:31;;;;;;;31.38;23.02;;;333.40;1766.40;;;;;;5104482;28;20027;-62
2021/04/23 00:36:58;;;;;;;28.73;22.98;;;333.30;1766.40;;;;;;5103035;28;20027;-62
2021/04/23 00:39:23;;;;;;;29.08;23.00;;;333.40;1766.40;;;;;;5104428;28;20031;-62
2021/04/23 00:41:49;;;;;;;27.92;22.55;;;333.40;1766.40;;;;;;5104185;28;20028;-62
2021/04/23 00:44:15;;;;;;;30.58;24.30;;;333.30;1766.40;;;;;;5101119;28;20552;-62
2021/04/23 00:46:41;;;;;;;26.20;22.08;;;333.30;1766.40;;;;;;5104954;28;20097;-62
2021/04/23 00:49:07;;;;;;;29.02;23.50;;;333.30;1766.40;;;;;;5103838;28;20051;-61
2021/04/23 00:51:38;;;;;;;28.08;21.55;;;333.30;1766.40;;;;;;5104264;28;20020;-62
2021/04/23 00:54:05;;;;;;;31.27;23.50;;;333.30;1766.40;;;;;;5101786;28;20034;-63
2021/04/23 00:56:34;;;;;;;30.48;23.25;;;333.30;1766.40;;;;;;5108724;28;20027;-62
2021/04/23 00:59:00;;;;;;;30.60;22.58;;;333.30;1766.40;;;;;;5114081;28;20038;-62
2021/04/23 01:01:49;;;;;;;28.05;22.17;;;333.30;1740.80;;;;;;5103152;28;20028;-62
2021/04/23 01:04:17;;;;;;;24.55;19.65;;;333.30;1766.40;;;;;;5102504;28;20016;-62
2021/04/23 01:06:44;;;;;;;26.35;20.90;;;333.30;1740.80;;;;;;5098178;28;20024;-62
2021/04/23 01:09:21;;;;;;;24.92;19.77;;;333.30;1740.80;;;;;;5099845;28;20016;-62
2021/04/23 01:11:48;;;;;;;24.95;19.40;;;333.30;1715.20;;;;;;5095491;28;20085;-62
2021/04/23 01:14:15;;;;;;;23.05;18.10;;;333.30;1715.20;;;;;;5096884;28;20036;-64
2021/04/23 01:16:41;;;;;;;21.45;17.92;;;333.40;1715.20;;;;;;5094977;28;20032;-62
2021/04/23 01:19:10;;;;;;;23.25;17.77;;;333.40;1689.60;;;;;;5105208;28;20032;-63
2021/04/23 01:21:37;;;;;;;23.95;17.92;;;333.30;1689.60;;;;;;5093592;28;20028;-63
2021/04/23 01:24:07;;;;;;;24.70;18.08;;;333.30;1689.60;;;;;;5102212;28;20047;-62
2021/04/23 01:26:36;;;;;;;26.98;18.30;;;333.30;1664.00;;;;;;5098770;28;20040;-62
2021/04/23 01:29:05;;;;;;;22.75;17.55;;;333.30;1664.00;;;;;;5100969;28;20062;-61
2021/04/23 01:31:34;;;;;;;20.50;16.83;;;333.30;1664.00;;;;;;5102339;28;20095;-62
2021/04/23 01:34:16;;;;;;;19.45;15.93;;;333.30;1664.00;;;;;;5103090;28;20069;-61
2021/04/23 01:36:43;;;;;;;19.95;17.27;;;333.30;1664.00;;;;;;5098323;28;20039;-62
2021/04/23 01:39:15;;;;;;;21.63;16.58;;;333.30;1689.60;;;;;;5113959;28;20035;-62
2021/04/23 01:41:42;;;;;;;26.20;17.83;;;333.30;1689.60;;;;;;5110633;28;20024;-62
2021/04/23 01:44:09;;;;;;;24.77;17.52;;;333.30;1689.60;;;;;;5115681;28;20411;-62
2021/04/23 01:46:35;;;;;;;22.75;16.85;;;333.30;1689.60;;;;;;5117535;27;20054;-62
2021/04/23 01:49:05;;;;;;;22.20;16.88;;;333.30;1664.00;;;;;;5117458;28;20343;-62
2021/04/23 01:51:31;;;;;;;20.83;15.85;;;333.30;1689.60;;;;;;5101641;28;20111;-61
2021/04/23 01:53:57;;;;;;;20.95;15.60;;;333.30;1664.00;;;;;;5099540;28;20047;-62
2021/04/23 01:56:23;;;;;;;20.08;16.05;;;333.30;1664.00;;;;;;5105484;28;20549;-62
2021/04/23 01:58:49;;;;;;;17.90;15.27;;;333.30;1664.00;;;;;;5105894;28;20040;-61
2021/04/23 02:01:16;;;;;;;22.58;15.95;;;333.30;1664.00;;;;;;5107488;28;20121;-61
2021/04/23 02:03:42;;;;;;;21.90;16.80;;;333.30;1664.00;;;;;;5108065;28;20069;-62
2021/04/23 02:06:09;;;;;;;21.52;15.23;;;333.30;1664.00;;;;;;5106087;28;20024;-61
2021/04/23 02:08:36;;;;;;;27.55;17.98;;;333.30;1664.00;;;;;;5113382;28;20043;-62
2021/04/23 02:11:11;;;;;;;23.10;17.33;;;333.20;1664.00;;;;;;5117501;28;20034;-63
2021/04/23 02:13:39;;;;;;;24.35;16.90;;;333.20;1664.00;;;;;;5108821;28;20149;-62
2021/04/23 02:16:07;;;;;;;25.42;17.27;;;333.20;1664.00;;;;;;5108697;28;20036;-62
2021/04/23 02:18:33;;;;;;;27.92;17.90;;;333.20;1664.00;;;;;;5104827;28;20498;-62
2021/04/23 02:20:59;;;;;;;23.05;17.52;;;333.20;1664.00;;;;;;5100544;28;20576;-62
2021/04/23 02:23:25;;;;;;;25.83;17.90;;;333.20;1664.00;;;;;;5104687;28;20074;-62
2021/04/23 02:25:52;;;;;;;23.40;16.50;;;333.20;1664.00;;;;;;5105961;28;20023;-62
2021/04/23 02:28:18;;;;;;;21.08;17.13;;;333.20;1664.00;;;;;;5104290;28;20039;-63
2021/04/23 02:30:52;;;;;;;26.27;17.98;;;333.20;1664.00;;;;;;5105023;28;20028;-62
2021/04/23 02:33:20;;;;;;;24.63;18.05;;;333.20;1664.00;;;;;;5104378;28;20354;-63
2021/04/23 02:35:48;;;;;;;24.52;18.55;;;333.20;1664.00;;;;;;5105513;28;20051;-62
2021/04/23 02:38:13;;;;;;;23.58;18.25;;;333.20;1664.00;;;;;;5105400;28;20103;-63
2021/04/23 02:40:40;;;;;;;27.52;17.98;;;333.20;1664.00;;;;;;5107675;28;20580;-62
2021/04/23 02:43:13;;;;;;;27.65;19.08;;;333.20;1664.00;;;;;;5104032;28;20031;-63
2021/04/23 02:45:41;;;;;;;21.58;17.02;;;333.20;1664.00;;;;;;5104692;28;20032;-62
2021/04/23 02:48:09;;;;;;;22.42;16.85;;;333.10;1664.00;;;;;;5103816;28;20028;-62
2021/04/23 02:50:38;;;;;;;20.58;16.27;;;333.10;1664.00;;;;;;5105406;28;20110;-63
2021/04/23 02:53:06;;;;;;;22.45;16.52;;;333.10;1664.00;;;;;;5105562;28;20481;-62
2021/04/23 02:55:32;;;;;;;22.17;15.95;;;333.00;1664.00;;;;;;5102752;28;20028;-62
2021/04/23 02:58:07;;;;;;;19.70;14.93;;;333.00;1638.40;;;;;;5105355;28;20023;-62
2021/04/23 03:00:37;;;;;;;21.42;14.70;;;333.00;1612.80;;;;;;5107124;28;20121;-63
2021/04/23 03:03:05;;;;;;;24.33;15.07;;;333.00;1638.40;;;;;;5105298;28;20020;-62
2021/04/23 03:05:31;;;;;;;21.13;14.40;;;333.00;1612.80;;;;;;5103594;28;20036;-61
2021/04/23 03:07:58;;;;;;;19.75;15.07;;;333.00;1612.80;;;;;;5107242;28;20036;-62
2021/04/23 03:10:28;;;;;;;21.15;15.15;;;333.00;1612.80;;;;;;5105537;28;20030;-62
2021/04/23 03:12:55;;;;;;;20.48;13.65;;;333.00;1587.20;;;;;;5104614;28;20063;-62
2021/04/23 03:15:23;;;;;;;21.40;14.40;;;333.00;1612.80;;;;;;5105642;28;20023;-62
2021/04/23 03:17:51;;;;;;;19.85;13.88;;;333.00;1612.80;;;;;;5102482;28;20024;-62
2021/04/23 03:20:19;;;;;;;20.60;14.25;;;333.00;1612.80;;;;;;5105160;28;20370;-63
2021/04/23 03:22:45;;;;;;;19.42;13.07;;;332.90;1612.80;;;;;;5103369;28;20070;-63
2021/04/23 03:25:13;;;;;;;19.05;13.57;;;332.90;1612.80;;;;;;5102803;28;20423;-63
2021/04/23 03:27:40;;;;;;;20.80;14.20;;;332.80;1612.80;;;;;;5105197;28;20102;-62
2021/04/23 03:30:10;;;;;;;21.55;14.02;;;332.80;1612.80;;;;;;5102860;28;20028;-62
2021/04/23 03:32:35;;;;;;;19.92;13.43;;;332.80;1612.80;;;;;;5105720;28;20021;-63
2021/04/23 03:35:01;;;;;;;17.95;13.38;;;332.80;1612.80;;;;;;5101211;28;20051;-61
2021/04/23 03:37:27;;;;;;;20.70;13.02;;;332.80;1612.80;;;;;;5095185;28;20035;-62
2021/04/23 03:39:53;;;;;;;17.85;12.98;;;332.80;1612.80;;;;;;5100792;28;20065;-63
2021/04/23 03:42:18;;;;;;;21.10;12.90;;;332.80;1612.80;;;;;;5104957;28;20063;-62
2021/04/23 03:44:45;;;;;;;22.48;12.93;;;332.80;1612.80;;;;;;5107371;27;20544;-61
2021/04/23 03:47:10;;;;;;;20.88;12.60;;;332.80;1612.80;;;;;;5108907;28;20066;-61
2021/04/23 03:49:36;;;;;;;17.05;11.77;;;332.80;1612.80;;;;;;5108841;28;20470;-62
2021/04/23 03:52:03;;;;;;;21.55;12.73;;;332.80;1612.80;;;;;;5104666;28;20023;-63
2021/04/23 03:54:29;;;;;;;19.27;12.88;;;332.80;1612.80;;;;;;5102880;28;20032;-62
2021/04/23 03:56:54;;;;;;;18.20;12.25;;;308.10;1587.20;;;;;;5094734;28;20035;-62
2021/04/23 03:59:21;;;;;;;18.10;12.15;;;308.10;1587.20;;;;;;5094816;28;20040;-62
2021/04/23 04:01:47;;;;;;;22.75;14.05;;;308.00;1587.20;;;;;;5094604;28;20484;-62
2021/04/23 04:04:12;;;;;;;19.05;12.10;;;308.00;1587.20;;;;;;5094516;28;20107;-62
2021/04/23 04:06:38;;;;;;;19.60;13.20;;;308.00;1587.20;;;;;;5094216;28;20052;-62
2021/04/23 04:09:05;;;;;;;26.63;15.23;;;308.00;1612.80;;;;;;5094639;28;20107;-61
2021/04/23 04:11:31;;;;;;;24.02;15.38;;;308.00;1612.80;;;;;;5094325;28;20028;-62
2021/04/23 04:13:57;;;;;;;23.23;15.50;;;308.00;1612.80;;;;;;5094590;28;20030;-62
2021/04/23 04:16:23;;;;;;;21.52;14.25;;;308.00;1612.80;;;;;;5092808;28;20032;-62
2021/04/23 04:18:48;;;;;;;24.08;14.88;;;308.00;1612.80;;;;;;5093929;28;20032;-62
2021/04/23 04:21:14;;;;;;;20.92;14.02;;;308.00;1612.80;;;;;;5094591;28;20455;-62
2021/04/23 04:23:40;;;;;;;25.20;15.23;;;308.00;1638.40;;;;;;5094496;28;20024;-62
2021/04/23 04:26:06;;;;;;;23.77;15.93;;;308.00;1638.40;;;;;;5094498;28;20035;-62
2021/04/23 04:28:32;;;;;;;26.02;16.80;;;308.00;1612.80;;;;;;5094398;28;20378;-62
2021/04/23 04:30:59;;;;;;;22.88;15.95;;;308.00;1638.40;;;;;;5093779;28;20032;-62
2021/04/23 04:33:25;;;;;;;23.15;16.95;;;308.00;1638.40;;;;;;5094361;28;20043;-62
2021/04/23 04:35:51;;;;;;;20.65;14.93;;;308.00;1638.40;;;;;;5094072;28;20469;-62
2021/04/23 04:38:18;;;;;;;22.50;16.40;;;307.90;1638.40;;;;;;5094054;28;20023;-62
2021/04/23 04:40:46;;;;;;;24.58;16.40;;;307.90;1638.40;;;;;;5094248;28;20028;-62
2021/04/23 04:43:13;;;;;;;22.90;15.63;;;307.90;1638.40;;;;;;5094173;28;20055;-62
2021/04/23 04:45:41;;;;;;;25.23;16.65;;;307.90;1638.40;;;;;;5093823;28;20028;-62
2021/04/23 04:48:08;;;;;;;25.98;15.38;;;307.90;1612.80;;;;;;5094068;28;20497;-62
2021/04/23 04:50:38;;;;;;;24.20;14.95;;;307.90;1612.80;;;;;;5113458;28;20032;-63
2021/04/23 04:53:07;;;;;;;22.38;15.55;;;307.90;1638.40;;;;;;5105746;28;20028;-62
2021/04/23 04:55:37;;;;;;;25.13;15.30;;;307.90;1612.80;;;;;;5104784;28;20044;-61
2021/04/23 04:58:04;;;;;;;24.15;14.98;;;307.90;1612.80;;;;;;5102272;28;20024;-61
2021/04/23 05:00:31;;;;;;;21.50;14.40;;;308.00;1612.80;;;;;;5101126;28;20461;-60
2021/04/23 05:02:57;;;;;;;22.38;13.65;;;308.00;1612.80;;;;;;5102864;28;20047;-61
2021/04/23 05:05:24;;;;;;;24.50;13.65;;;308.00;1587.20;;;;;;5111963;28;20443;-62
2021/04/23 05:07:50;;;;;;;25.25;13.60;;;308.00;1587.20;;;;;;5112566;28;20020;-61
2021/04/23 05:10:16;;;;;;;22.40;13.43;;;308.00;1587.20;;;;;;5112604;28;20027;-62
2021/04/23 05:12:42;;;;;;;24.10;13.32;;;308.00;1587.20;;;;;;5112273;28;20039;-62
2021/04/23 05:15:11;;;;;;;24.60;11.77;;;308.00;1561.60;;;;;;5109610;28;20020;-61
2021/04/23 05:17:37;;;;;;;17.75;11.07;;;308.00;1536.00;;;;;;5112419;28;20032;-61
2021/04/23 05:20:08;;;;;;;20.75;11.00;;;307.90;1536.00;;;;;;5116234;28;20496;-61
2021/04/23 05:22:37;;;;;;;25.42;11.07;;;307.90;1536.00;;;;;;5114728;28;20024;-62
2021/04/23 05:25:05;;;;;;;18.13;10.90;;;307.90;1510.40;;;;;;5116629;28;20057;-61
2021/04/23 05:27:31;;;;;;;18.58;11.25;;;307.90;1510.40;;;;;;5114149;28;20068;-61
2021/04/23 05:29:56;;;;;;;19.85;10.60;;;307.90;1510.40;;;;;;5116349;28;20114;-62
2021/04/23 05:32:23;;;;;;;17.63;9.60;;;307.90;1510.40;;;;;;5116504;28;20082;-61
2021/04/23 05:34:49;;;;;;;20.40;11.00;;;307.90;1510.40;;;;;;5113544;28;20019;-61
2021/04/23 05:37:15;;;;;;;18.60;10.07;;;308.00;1484.80;;;;;;5117171;28;20026;-62
2021/04/23 05:39:43;;;;;;;19.30;9.88;;;308.00;1484.80;;;;;;5117775;28;20034;-62
2021/04/23 05:42:13;;;;;;;20.20;10.15;;;308.00;1459.20;;;;;;5117845;28;20072;-62
2021/04/23 05:44:39;;;;;;;21.70;11.05;;;308.10;1459.20;;;;;;5117939;28;20054;-62
2021/04/23 05:47:05;;;;;;;27.17;15.05;;;308.00;1433.60;;;;;;5117724;28;20044;-62
2021/04/23 05:49:32;;;;;;;29.40;14.27;;;308.00;1433.60;;;;;;5117924;28;20431;-61
2021/04/23 05:51:59;;;;;;;24.02;12.02;;;308.00;1433.60;;;;;;5115699;28;20034;-62
2021/04/23 05:54:25;;;;;;;19.02;10.30;;;308.10;1433.60;;;;;;5117725;28;20024;-62
2021/04/23 05:56:50;;;;;;;23.67;9.48;;;308.10;1408.00;;;;;;5115839;28;20149;-62
2021/04/23 05:59:16;;;;;;;23.40;9.63;;;332.80;1433.60;;;;;;5117291;28;20035;-62
2021/04/23 06:01:42;;;;;;;19.85;9.20;;;332.80;1408.00;;;;;;5117341;28;20453;-62
2021/04/23 06:04:08;;;;;;;17.90;9.95;;;332.80;1408.00;;;;;;5115615;28;20032;-62
2021/04/23 06:06:34;;;;;;;20.33;8.18;;;333.00;1408.00;;;;;;5117486;28;20023;-62
2021/04/23 06:08:59;;;;;;;29.08;8.90;;;333.00;1356.80;;;;;;5117363;28;20469;-62
2021/04/23 06:11:25;;;;;;;25.58;13.18;;;333.10;1356.80;;;;;;5099517;28;20031;-62
2021/04/23 06:13:51;;;;;;;28.80;11.63;;;333.20;1331.20;;;;;;5096929;28;20028;-62
2021/04/23 06:16:17;;;;;;;19.45;9.65;;;333.20;1280.00;;;;;;5094982;28;20039;-62
2021/04/23 06:18:43;;;;;;;16.50;8.05;;;333.30;1280.00;;;;;;5096791;28;20085;-62
2021/04/23 06:21:10;;;;;;;16.63;7.85;;;333.50;1305.60;;;;;;5096682;28;20028;-62
2021/04/23 06:23:37;;;;;;;16.48;7.63;;;333.60;1280.00;;;;;;5094628;28;20191;-62
2021/04/23 06:26:04;;;;;;;18.52;8.90;;;358.40;1254.40;;;;;;5096854;28;20107;-62
2021/04/23 06:28:30;;;;;;;17.30;9.80;;;358.50;1254.40;;;;;;5096638;28;20450;-62
2021/04/23 06:30:56;;;;;;;26.10;9.48;;;358.60;1228.80;;;;;;5096291;28;20111;-62
2021/04/23 06:33:25;;;;;;;22.33;9.73;;;358.80;1203.20;;;;;;5097500;28;20328;-62
2021/04/23 06:35:51;;;;;;;23.90;9.65;;;358.90;1203.20;;;;;;5096468;28;20048;-62
2021/04/23 06:38:17;;;;;;;24.50;9.98;;;359.10;1177.60;;;;;;5096966;28;20024;-62
2021/04/23 06:40:43;;;;;;;18.27;9.50;;;359.20;1177.60;;;;;;5096605;28;20504;-61
2021/04/23 06:43:09;;;;;;;17.58;7.90;;;384.00;1152.00;;;;;;5096336;28;20374;-63
2021/04/23 06:45:35;;;;;;;52.25;9.50;;;384.10;1126.40;;;;;;5096187;28;20043;-62
2021/04/23 06:48:01;;;;;;;32.33;9.00;;;384.40;1126.40;;;;;;5096218;28;20048;-62
2021/04/23 06:50:27;;;;;;;21.33;9.43;;;384.50;1126.40;;;;;;5096142;28;20069;-62
2021/04/23 06:52:56;;;;;;;18.15;8.68;;;384.80;1100.80;;;;;;5096335;28;20020;-63
2021/04/23 06:55:23;;;;;;;16.30;7.93;;;409.60;1126.40;;;;;;5096196;28;20030;-62
2021/04/23 06:57:51;;;;;;;16.77;7.00;;;409.70;1075.20;;;;;;5096203;28;20016;-61
2021/04/23 07:00:19;;;;;;;19.17;8.65;;;409.80;1075.20;;;;;;5096315;28;20127;-61
2021/04/23 07:02:45;;;;;;;18.52;9.50;;;410.00;1075.20;;;;;;5096166;28;20387;-61
2021/04/23 07:05:13;;;;;;;17.25;9.13;;;410.10;1049.60;;;;;;5096198;28;20024;-62
2021/04/23 07:07:38;;;;;;;19.58;7.80;;;410.30;1049.60;;;;;;5094769;28;20016;-61
2021/04/23 07:10:08;;;;;;;27.08;8.90;;;410.40;1049.60;;;;;;5095778;28;20038;-61
2021/04/23 07:12:34;;;;;;;19.38;9.52;;;435.20;1049.60;;;;;;5096088;28;20102;-61
2021/04/23 07:14:59;;;;;;;22.23;9.05;;;435.30;1024.00;;;;;;5095748;28;20450;-60
2021/04/23 07:17:25;;;;;;;19.90;10.05;;;435.50;1024.00;;;;;;5095937;28;20038;-60
2021/04/23 07:19:51;;;;;;;22.95;9.75;;;435.60;998.40;;;;;;5095617;28;20417;-63
2021/04/23 07:22:17;;;;;;;26.27;10.82;;;435.70;998.40;;;;;;5094073;28;20032;-60
2021/04/23 07:24:44;;;;;;;17.80;9.93;;;435.90;972.80;;;;;;5095649;28;20074;-60
2021/04/23 07:27:10;;;;;;;27.38;10.52;;;436.00;972.80;;;;;;5095681;28;20024;-60
2021/04/23 07:29:36;;;;;;;30.40;9.38;;;435.90;972.80;;;;;;5095535;28;20112;-61
2021/04/23 07:32:02;;;;;;;20.90;9.45;;;436.10;947.20;;;;;;5095938;28;20024;-61
2021/04/23 07:34:28;;;;;;;18.90;8.85;;;460.90;972.80;;;;;;5095519;28;20028;-61
2021/04/23 07:36:54;;;;;;;21.77;9.35;;;461.00;947.20;;;;;;5095290;28;20077;-61
2021/04/23 07:39:22;;;;;;;21.52;8.18;;;461.10;972.80;;;;;;5095167;28;20066;-61
2021/04/23 07:41:50;;;;;;;17.67;8.20;;;461.20;921.60;;;;;;5094740;28;20359;-61
2021/04/23 07:44:16;;;;;;;20.55;7.78;;;461.30;921.60;;;;;;5095110;28;20085;-60
2021/04/23 07:46:42;;;;;;;16.88;7.22;;;461.40;921.60;;;;;;5095071;28;20067;-61
2021/04/23 07:49:08;;;;;;;14.15;7.60;;;461.40;896.00;;;;;;5093384;28;20374;-61
2021/04/23 07:51:33;;;;;;;25.63;8.52;;;461.50;896.00;;;;;;5095083;28;20024;-61
2021/04/23 07:53:59;;;;;;;17.35;7.47;;;461.60;921.60;;;;;;5095123;28;20436;-61
2021/04/23 07:56:25;;;;;;;12.20;7.07;;;486.40;896.00;;;;;;5094931;28;20082;-61
2021/04/23 07:58:50;;;;;;;17.08;6.88;;;486.50;896.00;;;;;;5094574;28;20082;-61
2021/04/23 08:01:16;;;;;;;17.05;6.90;;;486.50;870.40;;;;;;5092938;28;20040;-61
2021/04/23 08:03:42;;;;;;;12.77;6.95;;;486.60;870.40;;;;;;5094771;28;20028;-61
2021/04/23 08:06:08;;;;;;;11.05;6.70;;;486.70;844.80;;;;;;5094896;28;20028;-61
2021/04/23 08:08:34;;;;;;;18.10;7.57;;;486.80;844.80;;;;;;5094615;28;20458;-61
2021/04/23 08:10:59;;;;;;;12.07;6.90;;;486.80;844.80;;;;;;5094869;28;20017;-61
2021/04/23 08:13:25;;;;;;;15.93;7.40;;;487.10;819.20;;;;;;5094649;28;20053;-61
2021/04/23 08:15:51;;;;;;;16.73;7.75;;;487.20;844.80;;;;;;5094699;28;20028;-61
2021/04/23 08:18:17;;;;;;;15.65;6.72;;;487.20;844.80;;;;;;5094562;28;20028;-61
2021/04/23 08:20:43;;;;;;;16.85;7.30;;;487.20;819.20;;;;;;5094662;28;20035;-61
2021/04/23 08:23:08;;;;;;;14.77;6.47;;;487.20;819.20;;;;;;5094770;28;20028;-61
2021/04/23 08:25:34;;;;;;;13.57;6.07;;;512.00;819.20;;;;;;5093362;28;20535;-61
2021/04/23 08:28:00;;;;;;;11.73;6.40;;;512.10;793.60;;;;;;5094284;28;20458;-61
2021/04/23 08:30:27;;;;;;;12.02;7.28;;;512.30;793.60;;;;;;5094148;28;20031;-61
2021/04/23 08:33:00;;;;;;;16.45;6.80;;;512.40;793.60;;;;;;5094379;28;20105;-61
2021/04/23 08:35:26;;;;;;;13.38;6.78;;;512.50;793.60;;;;;;5094346;28;20099;-61
2021/04/23 08:37:52;;;;;;;13.02;6.47;;;512.50;768.00;;;;;;5094221;28;20512;-61
2021/04/23 08:40:20;;;;;;;20.48;7.28;;;512.60;768.00;;;;;;5094164;28;20036;-61
2021/04/23 08:42:46;;;;;;;15.82;7.38;;;512.60;768.00;;;;;;5093025;28;20027;-61
2021/04/23 08:45:17;;;;;;;13.80;7.25;;;512.70;793.60;;;;;;5088155;28;20054;-62
2021/04/23 08:47:44;;;;;;;14.43;7.45;;;512.70;742.40;;;;;;5092669;28;20039;-62
2021/04/23 08:50:11;;;;;;;161.05;115.43;;;512.70;742.40;;;;;;5093153;28;20051;-62
2021/04/23 08:52:40;;;;;;;59.42;32.58;;;512.70;793.60;;;;;;5092115;28;20063;-65
2021/04/23 08:55:06;;;;;;;65.93;15.55;;;512.70;768.00;;;;;;5092955;28;20028;-61
2021/04/23 08:57:32;;;;;;;113.35;14.77;;;512.80;768.00;;;;;;5092969;28;20043;-63
2021/04/23 09:00:01;;;;;;;55.72;8.93;;;512.90;742.40;;;;;;5092986;28;20545;-65
2021/04/23 09:02:26;;;;;;;14.32;6.32;;;512.90;716.80;;;;;;5093420;28;20516;-63
2021/04/23 09:04:52;;;;;;;21.73;7.15;;;512.90;716.80;;;;;;5091778;28;20048;-64
2021/04/23 09:07:20;;;;;;;123.70;12.60;;;512.80;716.80;;;;;;5093072;28;20023;-65
2021/04/23 09:09:45;;;;;;;36.30;8.55;;;512.90;691.20;;;;;;5093314;28;20126;-64
2021/04/23 09:12:15;;;;;;;19.58;6.65;;;537.60;742.40;;;;;;5093460;28;20024;-64
2021/04/23 09:14:41;;;;;;;133.60;12.30;;;537.60;742.40;;;;;;5091560;28;20035;-61
2021/04/23 09:17:07;;;;;;;149.73;13.00;;;537.60;742.40;;;;;;5093387;28;20043;-63
2021/04/23 09:19:35;;;;;;;133.82;12.68;;;537.70;742.40;;;;;;5093279;28;20064;-63
2021/04/23 09:22:19;;;;;;;122.80;12.95;;;537.70;742.40;;;;;;5092833;28;20026;-61
2021/04/23 09:24:47;;;;;;;238.32;20.65;;;537.90;742.40;;;;;;5093206;28;20082;-61
2021/04/23 09:27:18;;;;;;;461.67;30.30;;;538.00;768.00;;;;;;5093065;28;20466;-63
2021/04/23 09:29:47;;;;;;;674.97;49.33;;;538.10;716.80;;;;;;5093083;28;20035;-65
2021/04/23 09:32:19;;;;;;;259.92;22.25;;;538.10;742.40;;;;;;5093209;28;20107;-65
2021/04/23 09:34:53;;;;;;;83.40;35.50;;;538.10;716.80;;;;;;5093272;28;20077;-64
2021/04/23 09:37:21;;;;;;;84.65;41.95;;;538.20;716.80;;;;;;5092743;28;20028;-65
2021/04/23 09:39:47;;;;;;;31.58;11.38;;;538.30;716.80;;;;;;5092967;28;20039;-64
2021/04/23 09:42:15;;;;;;;22.50;7.90;;;538.40;691.20;;;;;;5093073;28;20027;-63
2021/04/23 09:44:45;;;;;;;13.23;6.05;;;538.40;716.80;;;;;;5092406;28;20457;-61
2021/04/23 09:47:24;;;;;;;59.72;10.57;;;538.50;691.20;;;;;;5096073;28;20032;-65
2021/04/23 09:49:55;;;;;;;94.95;9.30;;;563.20;742.40;;;;;;5111608;28;20035;-60
2021/04/23 09:55:11;;;;;;;105.15;67.13;;;563.20;742.40;;;;;;5070353;28;20130;-60
2021/04/23 09:57:37;;;;;;;35.28;17.60;;;563.20;716.80;;;;;;5067354;28;20052;-61
2021/04/23 10:00:05;;;;;;;14.80;7.53;;;563.20;716.80;;;;;;5050377;28;20045;-63
2021/04/23 10:02:31;;;;;;;12.13;5.82;;;563.20;716.80;;;;;;5050225;28;20036;-61
2021/04/23 10:04:58;;;;;;;15.00;5.18;;;563.40;691.20;;;;;;5051608;28;20029;-60
2021/04/23 10:07:34;;;;;;;14.73;5.47;;;563.40;665.60;;;;;;5054231;28;20120;-62
2021/04/23 10:10:11;;;;;;;33.35;6.53;;;563.40;691.20;;;;;;5037452;28;20021;-62
2021/04/23 10:12:49;;;;;;;31.58;6.10;;;563.40;691.20;;;;;;5053474;28;20033;-61
2021/04/23 10:15:32;;;;;;;21.23;7.50;;;563.40;691.20;;;;;;5053870;28;20024;-63
2021/04/23 10:18:18;;;;;;;90.68;10.60;;;563.40;691.20;;;;;;5053680;28;20028;-61
2021/04/23 10:20:49;;;;;;;58.58;8.13;;;563.40;742.40;;;;;;5052905;28;20127;-64
2021/04/23 10:23:20;;;;;;;171.07;75.63;;;563.50;716.80;;;;;;5053818;28;20213;-64
2021/04/23 10:25:47;;;;;;;116.30;67.40;;;563.60;742.40;;;;;;5053561;28;20065;-62
2021/04/23 10:28:17;;;;;;;65.07;42.85;;;563.70;716.80;;;;;;5052986;28;20021;-61
2021/04/23 10:30:45;;;;;;;18.10;10.55;;;563.70;716.80;;;;;;5063258;28;20028;-63
2021/04/23 10:33:13;;;;;;;21.08;6.45;;;563.70;665.60;;;;;;5095285;28;20036;-62
2021/04/23 10:35:41;;;;;;;14.48;5.00;;;563.70;640.00;;;;;;5095904;28;20048;-62
2021/04/23 10:38:09;;;;;;;15.98;5.72;;;563.60;640.00;;;;;;5095955;28;20032;-63
2021/04/23 10:40:37;;;;;;;18.65;5.03;;;563.70;665.60;;;;;;5096298;28;20093;-61
2021/04/23 10:43:16;;;;;;;24.10;5.95;;;563.70;640.00;;;;;;5097005;28;20154;-61
2021/04/23 10:45:46;;;;;;;17.13;5.32;;;563.70;640.00;;;;;;5095607;28;20036;-63
2021/04/23 10:48:11;;;;;;;11.48;5.53;;;563.70;640.00;;;;;;5102857;28;20039;-62
2021/04/23 10:50:49;;;;;;;10.38;5.32;;;563.70;665.60;;;;;;5105805;28;20393;-62
2021/04/23 10:53:30;;;;;;;13.65;6.28;;;563.80;640.00;;;;;;5100447;28;20051;-62
2021/04/23 10:56:00;;;;;;;11.38;5.47;;;563.90;640.00;;;;;;5114436;28;20047;-61
2021/04/23 10:58:28;;;;;;;21.98;6.70;;;564.00;640.00;;;;;;5105603;28;20052;-61
2021/04/23 11:00:59;;;;;;;16.75;5.38;;;564.00;640.00;;;;;;5103442;28;20035;-61
2021/04/23 11:03:34;;;;;;;15.45;5.25;;;563.90;614.40;;;;;;5103168;28;20028;-61
2021/04/23 11:06:26;;;;;;;12.23;4.90;;;563.80;640.00;;;;;;5107449;28;20032;-60
2021/04/23 11:09:01;;;;;;;13.48;5.38;;;563.90;640.00;;;;;;5102629;28;20023;-62
2021/04/23 11:11:38;;;;;;;7.88;4.78;;;563.80;614.40;;;;;;5103532;28;20032;-62
2021/04/23 11:14:26;;;;;;;14.02;4.65;;;563.80;614.40;;;;;;5101422;28;20041;-61
2021/04/23 11:16:54;;;;;;;12.65;4.80;;;563.80;614.40;;;;;;5112263;28;20115;-61
2021/04/23 11:19:20;;;;;;;9.88;4.40;;;563.90;614.40;;;;;;5115163;28;20043;-61
2021/04/23 11:21:47;;;;;;;9.20;4.60;;;564.00;640.00;;;;;;5115706;28;20385;-62
2021/04/23 11:24:21;;;;;;;9.32;4.40;;;564.10;614.40;;;;;;5115468;28;20435;-63
2021/04/23 11:27:03;;;;;;;;;;;;;;;;;;;;;
2021/04/23 11:29:50;;;;;;;39.50;6.43;;;564.10;614.40;;;;;;5115256;28;19904;-61
2021/04/23 11:32:31;;;;;;;30.80;5.90;;;588.80;665.60;;;;;;5111025;28;20039;-61
2021/04/23 11:35:00;;;;;;;20.60;5.97;;;588.80;665.60;;;;;;5114962;28;20043;-62
2021/04/23 11:37:29;;;;;;;11.07;5.38;;;588.80;665.60;;;;;;5115391;27;20094;-61
2021/04/23 11:39:59;;;;;;;12.98;5.05;;;588.90;742.40;;;;;;5115218;27;20115;-65
2021/04/23 11:42:28;;;;;;;12.70;5.70;;;589.00;742.40;;;;;;5114894;28;20043;-62
2021/04/23 11:45:06;;;;;;;9.75;4.45;;;589.00;716.80;;;;;;5115013;28;20470;-63
2021/04/23 11:47:39;;;;;;;12.88;4.82;;;589.10;691.20;;;;;;5114981;28;20069;-62
2021/04/23 11:50:27;;;;;;;6.57;4.22;;;589.10;691.20;;;;;;5114748;28;20070;-64
2021/04/23 11:52:54;;;;;;;15.80;4.60;;;589.10;665.60;;;;;;5114933;28;20050;-62
2021/04/23 11:55:26;;;;;;;14.68;5.68;;;589.10;665.60;;;;;;5113602;28;20027;-65
2021/04/23 11:58:02;;;;;;;13.00;5.15;;;589.10;691.20;;;;;;5114711;28;20473;-66
2021/04/23 12:00:29;;;;;;;9.32;4.45;;;589.20;665.60;;;;;;5114895;28;20035;-65
2021/04/23 12:03:02;;;;;;;9.00;5.03;;;589.10;665.60;;;;;;5114902;28;20023;-66
2021/04/23 12:05:35;;;;;;;10.23;4.38;;;589.10;665.60;;;;;;5114275;28;20028;-62
2021/04/23 12:08:08;;;;;;;10.35;4.05;;;589.10;640.00;;;;;;5114695;28;20031;-62
2021/04/23 12:10:38;;;;;;;15.00;4.73;;;589.00;665.60;;;;;;5114679;28;20023;-63
2021/04/23 12:13:12;;;;;;;7.70;5.00;;;589.00;691.20;;;;;;5114198;28;20019;-65
2021/04/23 12:15:39;;;;;;;14.00;5.68;;;589.10;742.40;;;;;;5114587;28;20032;-62
2021/04/23 12:18:06;;;;;;;11.40;5.38;;;589.00;665.60;;;;;;5113155;28;20409;-62
2021/04/23 12:20:37;;;;;;;15.15;5.72;;;589.10;716.80;;;;;;5114358;28;20362;-62